createdAt,value
2017-01-10T00:00:35.573Z,99.99
2017-01-10T00:01:35.551Z,99.99
2017-01-10T00:02:35.532Z,99.99
2017-01-10T00:03:35.507Z,99.99
2017-01-10T00:04:35.480Z,99.99
2017-01-10T00:05:35.463Z,99.99
2017-01-10T00:06:35.429Z,99.99
2017-01-10T00:07:35.415Z,99.99
2017-01-10T00:08:35.392Z,99.99
2017-01-10T00:09:35.370Z,99.99
2017-01-10T00:10:35.337Z,99.99
2017-01-10T00:11:35.320Z,99.99
2017-01-10T00:12:35.296Z,99.99
2017-01-10T00:13:35.269Z,99.99
2017-01-10T00:14:35.244Z,99.99
2017-01-10T00:15:35.215Z,99.99
2017-01-10T00:16:35.213Z,99.99
2017-01-10T00:17:35.177Z,99.99
2017-01-10T00:18:35.151Z,99.99
2017-01-10T00:19:35.119Z,99.99
2017-01-10T00:20:35.104Z,99.99
2017-01-10T00:21:35.076Z,99.99
2017-01-10T00:22:35.076Z,99.99
2017-01-10T00:23:35.030Z,99.99
2017-01-10T00:24:35.003Z,99.99
2017-01-10T00:25:34.982Z,99.99
2017-01-10T00:26:34.959Z,99.99
2017-01-10T00:27:34.931Z,99.99
2017-01-10T00:28:34.902Z,99.99
2017-01-10T00:29:34.886Z,99.99
2017-01-10T00:30:34.862Z,99.99
2017-01-10T00:31:34.836Z,99.99
2017-01-10T00:32:34.815Z,99.99
2017-01-10T00:33:34.780Z,99.99
2017-01-10T00:34:34.764Z,99.99
2017-01-10T00:35:34.743Z,99.99
2017-01-10T00:36:34.707Z,99.99
2017-01-10T00:37:34.695Z,99.99
2017-01-10T00:38:34.668Z,99.99
2017-01-10T00:39:34.646Z,99.99
2017-01-10T00:40:34.612Z,99.99
2017-01-10T00:41:34.589Z,99.99
2017-01-10T00:42:34.573Z,99.99
2017-01-10T00:43:34.545Z,99.99
2017-01-10T00:44:34.512Z,99.99
2017-01-10T00:45:34.489Z,99.99
2017-01-10T00:46:34.466Z,99.99
2017-01-10T00:47:34.471Z,99.99
2017-01-10T00:48:34.424Z,99.99
2017-01-10T00:49:34.399Z,99.99
2017-01-10T00:50:34.363Z,99.99
2017-01-10T00:51:34.343Z,99.99
2017-01-10T00:52:34.317Z,99.99
2017-01-10T00:53:34.293Z,99.99
2017-01-10T00:54:34.267Z,99.99
2017-01-10T00:55:34.245Z,99.99
2017-01-10T00:56:34.225Z,99.99
2017-01-10T00:57:34.196Z,99.99
2017-01-10T00:58:34.171Z,99.99
2017-01-10T00:59:34.142Z,99.99
2017-01-10T01:00:34.124Z,99.99
2017-01-10T01:01:34.120Z,99.99
2017-01-10T01:02:34.073Z,99.99
2017-01-10T01:03:34.046Z,99.99
2017-01-10T01:04:34.022Z,99.99
2017-01-10T01:05:33.996Z,99.99
2017-01-10T01:06:33.968Z,99.99
2017-01-10T01:07:33.940Z,99.99
2017-01-10T01:08:33.918Z,99.99
2017-01-10T01:09:33.897Z,99.99
2017-01-10T01:10:33.866Z,99.99
2017-01-10T01:11:33.851Z,99.99
2017-01-10T01:12:33.821Z,99.99
2017-01-10T01:13:33.793Z,99.99
2017-01-10T01:14:33.765Z,99.99
2017-01-10T01:15:33.746Z,99.99
2017-01-10T01:16:33.733Z,99.99
2017-01-10T01:17:33.692Z,99.99
2017-01-10T01:18:33.668Z,99.99
2017-01-10T01:19:33.641Z,99.99
2017-01-10T01:20:33.619Z,99.99
2017-01-10T01:21:33.594Z,99.99
2017-01-10T01:22:33.567Z,99.99
2017-01-10T01:23:33.545Z,99.99
2017-01-10T01:24:33.522Z,99.99
2017-01-10T01:25:33.497Z,99.99
2017-01-10T01:26:33.469Z,99.99
2017-01-10T01:27:33.441Z,99.99
2017-01-10T01:28:33.419Z,99.99
2017-01-10T01:29:33.396Z,99.99
2017-01-10T01:30:33.375Z,99.99
2017-01-10T01:31:33.351Z,99.99
2017-01-10T01:32:33.325Z,99.99
2017-01-10T01:33:33.294Z,99.99
2017-01-10T01:34:33.272Z,99.99
2017-01-10T01:35:33.256Z,99.99
2017-01-10T01:36:33.220Z,99.99
2017-01-10T01:37:33.202Z,99.99
2017-01-10T01:38:33.177Z,99.99
2017-01-10T01:39:33.157Z,99.99
2017-01-10T01:40:33.125Z,99.99
2017-01-10T01:41:33.104Z,99.99
2017-01-10T01:42:33.074Z,99.99
2017-01-10T01:43:33.058Z,99.99
2017-01-10T01:44:33.027Z,99.99
2017-01-10T01:45:33.001Z,99.99
2017-01-10T01:46:32.976Z,99.99
2017-01-10T01:47:32.953Z,99.99
2017-01-10T01:48:32.924Z,99.99
2017-01-10T01:49:32.910Z,99.99
2017-01-10T01:50:32.885Z,99.99
2017-01-10T01:51:32.851Z,99.99
2017-01-10T01:52:32.829Z,99.99
2017-01-10T01:53:32.809Z,99.99
2017-01-10T01:54:32.782Z,99.99
2017-01-10T01:55:32.762Z,99.99
2017-01-10T01:56:32.730Z,99.99
2017-01-10T01:57:32.713Z,99.99
2017-01-10T01:58:32.683Z,99.99
2017-01-10T01:59:32.660Z,99.99
2017-01-10T02:00:32.632Z,99.99
2017-01-10T02:01:32.616Z,99.99
2017-01-10T02:02:32.590Z,99.99
2017-01-10T02:03:32.558Z,99.99
2017-01-10T02:04:32.540Z,99.99
2017-01-10T02:05:32.516Z,99.99
2017-01-10T02:06:32.493Z,99.99
2017-01-10T02:07:32.468Z,99.99
2017-01-10T02:08:32.438Z,99.99
2017-01-10T02:09:32.413Z,99.99
2017-01-10T02:10:32.385Z,99.99
2017-01-10T02:11:32.368Z,99.99
2017-01-10T02:12:32.340Z,99.99
2017-01-10T02:13:32.313Z,99.99
2017-01-10T02:14:32.296Z,99.99
2017-01-10T02:15:32.266Z,99.99
2017-01-10T02:16:32.246Z,99.99
2017-01-10T02:17:32.068Z,99.99
2017-01-10T02:18:32.199Z,99.99
2017-01-10T02:19:32.169Z,99.99
2017-01-10T02:20:32.145Z,99.99
2017-01-10T02:21:32.113Z,99.99
2017-01-10T02:22:32.091Z,99.99
2017-01-10T02:23:32.064Z,99.99
2017-01-10T02:24:32.043Z,99.99
2017-01-10T02:25:32.017Z,99.99
2017-01-10T02:26:31.998Z,99.99
2017-01-10T02:27:31.819Z,99.99
2017-01-10T02:28:31.939Z,99.99
2017-01-10T02:29:31.916Z,99.99
2017-01-10T02:30:31.893Z,99.99
2017-01-10T02:31:31.871Z,99.99
2017-01-10T02:32:31.839Z,99.99
2017-01-10T02:33:31.815Z,99.99
2017-01-10T02:34:31.798Z,99.99
2017-01-10T02:35:31.775Z,99.99
2017-01-10T02:36:31.741Z,99.99
2017-01-10T02:37:31.724Z,99.99
2017-01-10T02:38:31.696Z,99.99
2017-01-10T02:39:31.668Z,99.99
2017-01-10T02:40:31.649Z,99.99
2017-01-10T02:41:31.615Z,99.99
2017-01-10T02:42:31.597Z,99.99
2017-01-10T02:43:31.566Z,99.99
2017-01-10T02:44:31.545Z,99.99
2017-01-10T02:45:31.520Z,99.99
2017-01-10T02:46:31.498Z,99.99
2017-01-10T02:47:31.472Z,99.99
2017-01-10T02:48:31.448Z,99.99
2017-01-10T02:49:31.417Z,99.99
2017-01-10T02:50:31.437Z,99.99
2017-01-10T02:51:31.373Z,99.99
2017-01-10T02:52:31.352Z,99.99
2017-01-10T02:53:31.318Z,99.99
2017-01-10T02:54:31.292Z,99.99
2017-01-10T02:55:31.274Z,99.99
2017-01-10T02:56:31.246Z,99.99
2017-01-10T02:57:31.227Z,99.99
2017-01-10T02:58:31.196Z,99.99
2017-01-10T02:59:31.179Z,99.99
2017-01-10T03:00:31.158Z,99.99
2017-01-10T03:01:31.128Z,99.99
2017-01-10T03:02:31.107Z,99.99
2017-01-10T03:03:31.076Z,99.99
2017-01-10T03:04:31.051Z,99.99
2017-01-10T03:05:31.031Z,99.99
2017-01-10T03:06:31.001Z,99.99
2017-01-10T03:07:30.976Z,99.99
2017-01-10T03:08:30.952Z,99.99
2017-01-10T03:09:30.923Z,99.99
2017-01-10T03:10:30.902Z,99.99
2017-01-10T03:11:30.870Z,99.99
2017-01-10T03:12:30.854Z,99.99
2017-01-10T03:13:30.822Z,99.99
2017-01-10T03:14:30.807Z,99.99
2017-01-10T03:15:30.780Z,99.99
2017-01-10T03:16:30.751Z,99.99
2017-01-10T03:17:30.731Z,99.99
2017-01-10T03:18:30.704Z,99.99
2017-01-10T03:19:30.675Z,99.99
2017-01-10T03:20:30.651Z,99.99
2017-01-10T03:21:30.630Z,99.99
2017-01-10T03:22:30.606Z,99.99
2017-01-10T03:23:30.574Z,99.99
2017-01-10T03:24:30.551Z,99.99
2017-01-10T03:25:30.530Z,99.99
2017-01-10T03:26:30.499Z,99.99
2017-01-10T03:27:30.693Z,99.99
2017-01-10T03:28:30.455Z,99.99
2017-01-10T03:29:30.430Z,99.99
2017-01-10T03:30:30.405Z,99.99
2017-01-10T03:31:30.384Z,99.99
2017-01-10T03:32:30.352Z,99.99
2017-01-10T03:33:30.332Z,99.99
2017-01-10T03:34:30.302Z,99.99
2017-01-10T03:35:30.285Z,99.99
2017-01-10T03:36:30.260Z,99.99
2017-01-10T03:37:30.230Z,99.99
2017-01-10T03:38:30.202Z,99.99
2017-01-10T03:39:30.185Z,99.99
2017-01-10T03:40:30.160Z,99.99
2017-01-10T03:41:30.135Z,99.99
2017-01-10T03:42:30.110Z,99.99
2017-01-10T03:43:30.074Z,99.99
2017-01-10T03:44:30.062Z,99.99
2017-01-10T03:45:30.034Z,99.99
2017-01-10T03:46:30.010Z,99.99
2017-01-10T03:47:29.974Z,99.99
2017-01-10T03:48:29.950Z,99.99
2017-01-10T03:49:29.933Z,99.99
2017-01-10T03:50:29.902Z,99.99
2017-01-10T03:51:29.882Z,99.99
2017-01-10T03:52:30.059Z,99.99
2017-01-10T03:53:29.828Z,99.99
2017-01-10T03:54:29.803Z,99.99
2017-01-10T03:55:29.785Z,99.99
2017-01-10T03:56:29.749Z,99.99
2017-01-10T03:57:29.737Z,99.99
2017-01-10T03:58:29.700Z,99.99
2017-01-10T03:59:29.690Z,99.99
2017-01-10T04:00:29.652Z,99.99
2017-01-10T04:01:29.633Z,99.99
2017-01-10T04:02:29.606Z,99.99
2017-01-10T04:03:29.585Z,99.99
2017-01-10T04:04:29.556Z,99.99
2017-01-10T04:05:29.535Z,99.99
2017-01-10T04:06:29.500Z,99.99
2017-01-10T04:07:29.477Z,99.99
2017-01-10T04:08:29.455Z,99.99
2017-01-10T04:09:29.427Z,99.99
2017-01-10T04:10:29.404Z,99.99
2017-01-10T04:11:29.384Z,99.99
2017-01-10T04:12:29.349Z,99.99
2017-01-10T04:13:29.331Z,99.99
2017-01-10T04:14:29.306Z,99.99
2017-01-10T04:15:29.277Z,99.99
2017-01-10T04:16:29.252Z,99.99
2017-01-10T04:17:29.230Z,99.99
2017-01-10T04:18:29.394Z,99.99
2017-01-10T04:19:29.179Z,99.99
2017-01-10T04:20:29.152Z,99.99
2017-01-10T04:21:29.124Z,99.99
2017-01-10T04:22:29.100Z,99.99
2017-01-10T04:23:29.083Z,99.99
2017-01-10T04:24:29.057Z,99.99
2017-01-10T04:25:29.025Z,99.99
2017-01-10T04:26:29.007Z,99.99
2017-01-10T04:27:28.975Z,99.99
2017-01-10T04:28:28.957Z,99.99
2017-01-10T04:29:28.924Z,99.99
2017-01-10T04:30:28.902Z,99.99
2017-01-10T04:31:28.876Z,99.99
2017-01-10T04:32:28.849Z,99.99
2017-01-10T04:33:28.831Z,99.99
2017-01-10T04:34:28.800Z,99.99
2017-01-10T04:35:28.773Z,99.99
2017-01-10T04:36:28.754Z,99.99
2017-01-10T04:37:28.722Z,99.99
2017-01-10T04:38:28.699Z,99.99
2017-01-10T04:39:28.673Z,99.99
2017-01-10T04:40:28.657Z,99.99
2017-01-10T04:41:28.628Z,99.99
2017-01-10T04:42:28.599Z,99.99
2017-01-10T04:43:28.576Z,99.99
2017-01-10T04:44:28.557Z,99.99
2017-01-10T04:45:28.533Z,99.99
2017-01-10T04:46:28.498Z,99.99
2017-01-10T04:47:28.473Z,99.99
2017-01-10T04:48:28.451Z,99.99
2017-01-10T04:49:28.424Z,99.99
2017-01-10T04:50:28.404Z,99.99
2017-01-10T04:51:28.374Z,99.99
2017-01-10T04:52:28.352Z,99.99
2017-01-10T04:53:28.322Z,99.99
2017-01-10T04:54:28.308Z,99.99
2017-01-10T04:55:28.273Z,99.99
2017-01-10T04:56:28.249Z,99.99
2017-01-10T04:57:28.230Z,99.99
2017-01-10T04:58:28.204Z,99.99
2017-01-10T04:59:28.174Z,99.99
2017-01-10T05:00:28.147Z,99.99
2017-01-10T05:01:28.133Z,99.99
2017-01-10T05:02:28.099Z,99.99
2017-01-10T05:03:28.082Z,99.99
2017-01-10T05:04:28.052Z,99.99
2017-01-10T05:05:28.028Z,99.99
2017-01-10T05:06:28.007Z,99.99
2017-01-10T05:07:27.983Z,99.99
2017-01-10T05:08:27.955Z,99.99
2017-01-10T05:09:27.923Z,99.99
2017-01-10T05:10:27.905Z,99.99
2017-01-10T05:11:27.872Z,99.99
2017-01-10T05:12:27.845Z,99.99
2017-01-10T05:13:27.824Z,99.99
2017-01-10T05:14:27.797Z,99.99
2017-01-10T05:15:27.780Z,99.99
2017-01-10T05:16:27.752Z,99.99
2017-01-10T05:17:27.720Z,99.99
2017-01-10T05:18:27.700Z,99.99
2017-01-10T05:19:27.671Z,99.99
2017-01-10T05:20:27.652Z,99.99
2017-01-10T05:21:27.625Z,99.99
2017-01-10T05:22:27.594Z,99.99
2017-01-10T05:23:27.574Z,99.99
2017-01-10T05:24:27.543Z,99.99
2017-01-10T05:25:27.521Z,99.99
2017-01-10T05:26:27.503Z,99.99
2017-01-10T05:27:27.478Z,99.99
2017-01-10T05:28:27.446Z,99.99
2017-01-10T05:29:27.428Z,99.99
2017-01-10T05:30:27.405Z,99.99
2017-01-10T05:31:27.372Z,99.99
2017-01-10T05:32:27.345Z,99.99
2017-01-10T05:33:27.323Z,99.99
2017-01-10T05:34:27.301Z,99.99
2017-01-10T05:35:27.267Z,99.99
2017-01-10T05:36:27.251Z,99.99
2017-01-10T05:37:27.217Z,99.99
2017-01-10T05:38:27.196Z,99.99
2017-01-10T05:39:27.173Z,99.99
2017-01-10T05:40:27.149Z,99.99
2017-01-10T05:41:27.117Z,99.99
2017-01-10T05:42:27.095Z,99.99
2017-01-10T05:43:27.072Z,99.99
2017-01-10T05:44:27.050Z,99.99
2017-01-10T05:45:27.026Z,99.99
2017-01-10T05:46:26.996Z,99.99
2017-01-10T05:47:26.965Z,99.99
2017-01-10T05:48:26.948Z,99.99
2017-01-10T05:49:26.917Z,99.99
2017-01-10T05:50:26.891Z,99.99
2017-01-10T05:51:26.869Z,99.99
2017-01-10T05:52:26.837Z,99.99
2017-01-10T05:53:26.816Z,99.99
2017-01-10T05:54:26.791Z,99.99
2017-01-10T05:55:26.769Z,99.99
2017-01-10T05:56:26.754Z,99.99
2017-01-10T05:57:26.718Z,99.99
2017-01-10T05:58:26.690Z,99.99
2017-01-10T05:59:26.663Z,99.99
2017-01-10T06:00:26.646Z,99.99
2017-01-10T06:01:26.617Z,99.99
2017-01-10T06:02:26.586Z,99.99
2017-01-10T06:03:26.567Z,99.99
2017-01-10T06:04:26.542Z,99.99
2017-01-10T06:05:26.517Z,99.99
2017-01-10T06:06:26.490Z,99.99
2017-01-10T06:07:26.462Z,99.99
2017-01-10T06:08:26.433Z,99.99
2017-01-10T06:09:26.417Z,99.99
2017-01-10T06:10:26.382Z,99.99
2017-01-10T06:11:26.365Z,99.99
2017-01-10T06:12:26.334Z,99.99
2017-01-10T06:13:26.315Z,99.99
2017-01-10T06:14:26.280Z,99.99
2017-01-10T06:15:26.261Z,99.99
2017-01-10T06:16:26.233Z,99.99
2017-01-10T06:17:26.212Z,99.99
2017-01-10T06:18:26.188Z,99.99
2017-01-10T06:19:26.151Z,99.99
2017-01-10T06:20:26.133Z,99.99
2017-01-10T06:21:26.100Z,99.99
2017-01-10T06:22:26.080Z,99.99
2017-01-10T06:23:26.060Z,99.99
2017-01-10T06:24:26.030Z,99.99
2017-01-10T06:25:26.006Z,99.99
2017-01-10T06:26:25.978Z,99.99
2017-01-10T06:27:25.956Z,99.99
2017-01-10T06:28:25.925Z,99.99
2017-01-10T06:29:25.903Z,99.99
2017-01-10T06:30:25.880Z,99.99
2017-01-10T06:31:25.845Z,99.99
2017-01-10T06:32:25.822Z,99.99
2017-01-10T06:33:25.797Z,99.99
2017-01-10T06:34:25.767Z,99.99
2017-01-10T06:35:25.749Z,99.99
2017-01-10T06:36:25.715Z,99.99
2017-01-10T06:37:25.690Z,99.99
2017-01-10T06:38:25.663Z,99.99
2017-01-10T06:39:25.641Z,99.99
2017-01-10T06:40:25.613Z,99.99
2017-01-10T06:41:25.587Z,99.99
2017-01-10T06:42:25.571Z,99.99
2017-01-10T06:43:25.536Z,99.99
2017-01-10T06:44:25.512Z,99.99
2017-01-10T06:45:25.491Z,99.99
2017-01-10T06:46:25.469Z,99.99
2017-01-10T06:47:25.445Z,99.99
2017-01-10T06:48:25.416Z,99.99
2017-01-10T06:49:25.402Z,99.99
2017-01-10T06:50:25.366Z,99.99
2017-01-10T06:51:25.334Z,99.99
2017-01-10T06:52:25.315Z,99.99
2017-01-10T06:53:25.293Z,99.99
2017-01-10T06:54:25.267Z,99.99
2017-01-10T06:55:25.233Z,99.99
2017-01-10T06:56:25.215Z,99.99
2017-01-10T06:57:25.195Z,99.99
2017-01-10T06:58:25.167Z,99.99
2017-01-10T06:59:25.141Z,99.99
2017-01-10T07:00:25.120Z,99.99
2017-01-10T07:01:25.096Z,99.99
2017-01-10T07:02:25.063Z,99.99
2017-01-10T07:03:25.040Z,99.99
2017-01-10T07:04:25.016Z,99.99
2017-01-10T07:05:24.997Z,99.99
2017-01-10T07:06:24.959Z,99.99
2017-01-10T07:07:24.941Z,99.99
2017-01-10T07:08:24.910Z,99.99
2017-01-10T07:09:24.895Z,99.99
2017-01-10T07:10:24.870Z,99.99
2017-01-10T07:11:24.844Z,99.99
2017-01-10T07:12:24.812Z,99.99
2017-01-10T07:13:24.786Z,99.99
2017-01-10T07:14:24.771Z,99.99
2017-01-10T07:15:24.740Z,99.99
2017-01-10T07:16:24.713Z,99.99
2017-01-10T07:17:24.688Z,99.99
2017-01-10T07:18:24.664Z,99.99
2017-01-10T07:19:24.650Z,99.99
2017-01-10T07:20:24.616Z,99.99
2017-01-10T07:21:24.598Z,99.99
2017-01-10T07:22:24.571Z,99.99
2017-01-10T07:23:24.547Z,99.99
2017-01-10T07:24:24.526Z,99.99
2017-01-10T07:25:24.504Z,99.99
2017-01-10T07:26:24.474Z,99.99
2017-01-10T07:27:24.451Z,99.99
2017-01-10T07:28:24.434Z,99.99
2017-01-10T07:29:24.404Z,99.99
2017-01-10T07:30:24.384Z,99.99
2017-01-10T07:31:24.363Z,99.99
2017-01-10T07:32:24.334Z,99.99
2017-01-10T07:33:24.311Z,99.99
2017-01-10T07:34:24.293Z,99.99
2017-01-10T07:35:24.272Z,99.99
2017-01-10T07:36:24.250Z,99.99
2017-01-10T07:37:24.226Z,99.99
2017-01-10T07:38:24.195Z,99.99
2017-01-10T07:39:24.179Z,99.99
2017-01-10T07:40:24.154Z,99.99
2017-01-10T07:41:24.129Z,99.99
2017-01-10T07:42:24.103Z,99.99
2017-01-10T07:43:24.091Z,99.99
2017-01-10T07:44:24.067Z,99.99
2017-01-10T07:45:24.038Z,99.99
2017-01-10T07:46:24.018Z,99.99
2017-01-10T07:47:23.997Z,99.99
2017-01-10T07:48:23.972Z,99.99
2017-01-10T07:49:23.953Z,99.99
2017-01-10T07:50:23.924Z,99.99
2017-01-10T07:51:23.905Z,99.99
2017-01-10T07:52:23.879Z,99.99
2017-01-10T07:53:23.861Z,99.99
2017-01-10T07:54:23.834Z,99.99
2017-01-10T07:55:23.817Z,99.99
2017-01-10T07:56:23.796Z,99.99
2017-01-10T07:57:23.774Z,99.99
2017-01-10T07:58:23.749Z,99.99
2017-01-10T07:59:23.730Z,99.99
2017-01-10T08:00:23.730Z,99.99
2017-01-10T08:01:23.676Z,99.99
2017-01-10T08:02:23.655Z,99.99
2017-01-10T08:03:23.637Z,99.99
2017-01-10T08:04:23.613Z,99.99
2017-01-10T08:05:23.598Z,99.99
2017-01-10T08:06:23.594Z,99.99
2017-01-10T08:07:23.557Z,99.99
2017-01-10T08:08:23.535Z,99.99
2017-01-10T08:09:23.508Z,99.99
2017-01-10T08:10:23.494Z,99.99
2017-01-10T08:11:23.471Z,99.99
2017-01-10T08:12:23.453Z,99.99
2017-01-10T08:13:23.430Z,99.99
2017-01-10T08:14:23.432Z,99.99
2017-01-10T08:15:23.383Z,99.99
2017-01-10T08:16:23.363Z,99.99
2017-01-10T08:17:23.347Z,99.99
2017-01-10T08:18:23.329Z,99.99
2017-01-10T08:19:23.305Z,99.99
2017-01-10T08:20:23.289Z,99.99
2017-01-10T08:21:23.266Z,99.99
2017-01-10T08:22:23.255Z,99.99
2017-01-10T08:23:23.232Z,99.99
2017-01-10T08:24:23.214Z,99.99
2017-01-10T08:25:23.194Z,99.99
2017-01-10T08:26:23.180Z,99.99
2017-01-10T08:27:23.158Z,99.99
2017-01-10T08:28:23.154Z,99.99
2017-01-10T08:29:23.128Z,99.99
2017-01-10T08:30:23.104Z,99.99
2017-01-10T08:31:23.087Z,99.99
2017-01-10T08:32:23.070Z,99.99
2017-01-10T08:33:23.059Z,99.99
2017-01-10T08:34:23.043Z,99.99
2017-01-10T08:35:23.029Z,99.99
2017-01-10T08:36:23.000Z,99.99
2017-01-10T08:37:22.991Z,99.99
2017-01-10T08:38:22.970Z,99.99
2017-01-10T08:39:22.951Z,99.99
2017-01-10T08:40:22.942Z,99.99
2017-01-10T08:41:22.925Z,99.99
2017-01-10T08:42:22.901Z,99.99
2017-01-10T08:43:22.883Z,99.99
2017-01-10T08:44:22.875Z,99.99
2017-01-10T08:45:22.850Z,99.99
2017-01-10T08:46:22.838Z,99.99
2017-01-10T08:47:22.837Z,99.99
2017-01-10T08:48:22.805Z,99.46
2017-01-10T08:49:22.786Z,99.74
2017-01-10T08:50:22.769Z,99.99
2017-01-10T08:51:22.746Z,99.79
2017-01-10T08:52:22.730Z,99.98
2017-01-10T08:53:22.711Z,99.79
2017-01-10T08:54:22.699Z,99.99
2017-01-10T08:55:22.679Z,99.88
2017-01-10T08:56:22.673Z,99.99
2017-01-10T08:57:22.656Z,99.98
2017-01-10T08:58:22.634Z,99.99
2017-01-10T08:59:22.625Z,99.94
2017-01-10T09:00:22.599Z,99.99
2017-01-10T09:01:22.595Z,99.99
2017-01-10T09:02:22.571Z,99.99
2017-01-10T09:03:22.552Z,99.99
2017-01-10T09:04:22.572Z,99.99
2017-01-10T09:05:22.528Z,99.99
2017-01-10T09:06:22.517Z,99.99
2017-01-10T09:07:22.505Z,99.99
2017-01-10T09:08:22.480Z,99.99
2017-01-10T09:09:22.470Z,99.99
2017-01-10T09:10:22.462Z,99.99
2017-01-10T09:11:22.449Z,99.99
2017-01-10T09:12:22.435Z,99.99
2017-01-10T09:13:22.415Z,99.99
2017-01-10T09:14:22.402Z,99.99
2017-01-10T09:15:22.392Z,99.99
2017-01-10T09:16:22.376Z,99.99
2017-01-10T09:17:22.361Z,99.99
2017-01-10T09:18:22.344Z,99.99
2017-01-10T09:19:22.333Z,99.99
2017-01-10T09:20:22.321Z,99.99
2017-01-10T09:21:22.313Z,99.95
2017-01-10T09:22:22.293Z,99.95
2017-01-10T09:23:22.273Z,99.9
2017-01-10T09:24:22.267Z,99.71
2017-01-10T09:25:22.249Z,99.99
2017-01-10T09:26:22.242Z,99.81
2017-01-10T09:27:22.230Z,99.71
2017-01-10T09:28:22.215Z,98.77
2017-01-10T09:29:22.200Z,98.58
2017-01-10T09:30:22.176Z,98.77
2017-01-10T09:31:22.174Z,99.24
2017-01-10T09:32:22.153Z,99.71
2017-01-10T09:33:22.136Z,99.9
2017-01-10T09:34:22.133Z,99.99
2017-01-10T09:35:22.108Z,99.99
2017-01-10T09:36:22.099Z,99.99
2017-01-10T09:37:22.089Z,99.99
2017-01-10T09:38:22.072Z,99.99
2017-01-10T09:39:22.052Z,99.99
2017-01-10T09:40:22.039Z,99.99
2017-01-10T09:41:22.027Z,99.99
2017-01-10T09:42:22.010Z,99.99
2017-01-10T09:43:22.001Z,99.71
2017-01-10T09:44:21.976Z,99.19
2017-01-10T09:45:21.964Z,98.71
2017-01-10T09:46:21.958Z,99.22
2017-01-10T09:47:21.932Z,99.04
2017-01-10T09:48:21.918Z,99.22
2017-01-10T09:49:21.909Z,99.22
2017-01-10T09:50:21.887Z,99.13
2017-01-10T09:51:21.877Z,99.98
2017-01-10T09:52:21.855Z,99.99
2017-01-10T09:53:21.839Z,99.99
2017-01-10T09:54:21.826Z,99.99
2017-01-10T09:55:21.814Z,99.99
2017-01-10T09:56:21.794Z,99.99
2017-01-10T09:57:21.777Z,99.99
2017-01-10T09:58:21.764Z,99.99
2017-01-10T09:59:21.752Z,99.99
2017-01-10T10:00:21.736Z,99.99
2017-01-10T10:01:21.715Z,99.99
2017-01-10T10:02:21.696Z,99.99
2017-01-10T10:03:21.687Z,99.99
2017-01-10T10:04:21.662Z,99.99
2017-01-10T10:05:21.656Z,99.99
2017-01-10T10:06:21.638Z,99.99
2017-01-10T10:07:21.616Z,99.99
2017-01-10T10:08:21.601Z,99.99
2017-01-10T10:09:21.587Z,99.99
2017-01-10T10:10:21.575Z,99.99
2017-01-10T10:11:21.557Z,99.99
2017-01-10T10:12:21.533Z,99.99
2017-01-10T10:13:21.523Z,99.99
2017-01-10T10:14:21.502Z,99.99
2017-01-10T10:15:21.487Z,99.99
2017-01-10T10:16:21.473Z,99.99
2017-01-10T10:17:21.462Z,99.99
2017-01-10T10:18:21.440Z,99.99
2017-01-10T10:19:21.428Z,99.99
2017-01-10T10:20:21.412Z,99.99
2017-01-10T10:21:21.403Z,99.99
2017-01-10T10:22:21.389Z,99.99
2017-01-10T10:23:21.375Z,99.99
2017-01-10T10:24:21.351Z,99.99
2017-01-10T10:25:21.339Z,99.99
2017-01-10T10:26:21.318Z,99.99
2017-01-10T10:27:21.311Z,99.99
2017-01-10T10:28:21.294Z,99.99
2017-01-10T10:29:21.277Z,99.99
2017-01-10T10:30:21.255Z,99.99
2017-01-10T10:31:21.250Z,99.99
2017-01-10T10:32:21.230Z,99.99
2017-01-10T10:33:21.213Z,99.99
2017-01-10T10:34:21.200Z,99.99
2017-01-10T10:35:21.188Z,99.99
2017-01-10T10:36:21.168Z,99.99
2017-01-10T10:37:21.154Z,99.99
2017-01-10T10:38:21.135Z,99.99
2017-01-10T10:39:21.121Z,99.99
2017-01-10T10:40:21.113Z,99.99
2017-01-10T10:41:21.092Z,99.99
2017-01-10T10:42:21.078Z,99.99
2017-01-10T10:43:21.066Z,99.99
2017-01-10T10:44:21.052Z,99.99
2017-01-10T10:45:21.038Z,99.99
2017-01-10T10:46:21.017Z,99.99
2017-01-10T10:47:20.999Z,99.99
2017-01-10T10:48:20.986Z,99.99
2017-01-10T10:49:20.979Z,99.99
2017-01-10T10:50:20.970Z,99.99
2017-01-10T10:51:20.947Z,99.99
2017-01-10T10:52:20.936Z,99.99
2017-01-10T10:53:20.913Z,99.99
2017-01-10T10:54:20.904Z,99.99
2017-01-10T10:55:20.885Z,99.99
2017-01-10T10:56:20.880Z,99.99
2017-01-10T10:57:20.854Z,99.99
2017-01-10T10:58:20.844Z,99.99
2017-01-10T10:59:20.833Z,99.99
2017-01-10T11:00:20.811Z,99.99
2017-01-10T11:01:20.807Z,99.99
2017-01-10T11:02:20.782Z,99.99
2017-01-10T11:03:20.767Z,99.99
2017-01-10T11:04:20.752Z,99.99
2017-01-10T11:05:20.738Z,99.99
2017-01-10T11:06:20.722Z,99.99
2017-01-10T11:07:20.710Z,99.99
2017-01-10T11:08:20.697Z,99.99
2017-01-10T11:09:20.679Z,99.99
2017-01-10T11:10:20.677Z,99.99
2017-01-10T11:11:20.652Z,99.99
2017-01-10T11:12:20.632Z,99.99
2017-01-10T11:13:20.621Z,99.99
2017-01-10T11:14:20.604Z,99.99
2017-01-10T11:15:20.583Z,99.99
2017-01-10T11:16:20.574Z,99.99
2017-01-10T11:17:20.563Z,99.99
2017-01-10T11:18:20.542Z,99.99
2017-01-10T11:19:20.523Z,99.99
2017-01-10T11:20:20.502Z,99.99
2017-01-10T11:21:20.497Z,99.99
2017-01-10T11:22:20.471Z,99.99
2017-01-10T11:23:20.463Z,99.99
2017-01-10T11:24:20.442Z,99.99
2017-01-10T11:25:20.436Z,99.9
2017-01-10T11:26:20.417Z,99.85
2017-01-10T11:27:20.395Z,99.76
2017-01-10T11:28:20.386Z,99.62
2017-01-10T11:29:20.373Z,99.71
2017-01-10T11:30:20.359Z,99.28
2017-01-10T11:31:20.349Z,98.52
2017-01-10T11:32:20.331Z,98.66
2017-01-10T11:33:20.311Z,98.38
2017-01-10T11:34:20.303Z,98.85
2017-01-10T11:35:20.281Z,98.95
2017-01-10T11:36:20.274Z,98.52
2017-01-10T11:37:20.247Z,98.19
2017-01-10T11:38:20.243Z,98.43
2017-01-10T11:39:20.229Z,98.28
2017-01-10T11:40:20.212Z,98.05
2017-01-10T11:41:20.197Z,97.29
2017-01-10T11:42:20.179Z,97.81
2017-01-10T11:43:20.162Z,98.14
2017-01-10T11:44:20.140Z,97.86
2017-01-10T11:45:20.133Z,98.1
2017-01-10T11:46:20.111Z,98.47
2017-01-10T11:47:20.093Z,98.43
2017-01-10T11:48:20.088Z,97.96
2017-01-10T11:49:20.070Z,97.72
2017-01-10T11:50:20.052Z,97.34
2017-01-10T11:51:20.034Z,97.39
2017-01-10T11:52:20.013Z,97.29
2017-01-10T11:53:20.005Z,97.1
2017-01-10T11:54:19.989Z,97.01
2017-01-10T11:55:19.967Z,96.73
2017-01-10T11:56:19.953Z,96.01
2017-01-10T11:57:19.943Z,96.01
2017-01-10T11:58:19.924Z,96.01
2017-01-10T11:59:19.900Z,95.92
2017-01-10T12:00:19.898Z,95.12
2017-01-10T12:01:19.878Z,95.26
2017-01-10T12:02:19.856Z,95.26
2017-01-10T12:03:19.836Z,95.83
2017-01-10T12:04:19.813Z,95.45
2017-01-10T12:05:19.797Z,95.83
2017-01-10T12:06:19.782Z,96.3
2017-01-10T12:07:19.758Z,96.67
2017-01-10T12:08:19.741Z,96.86
2017-01-10T12:09:19.729Z,97.43
2017-01-10T12:10:19.711Z,97.61
2017-01-10T12:11:19.687Z,97.33
2017-01-10T12:12:19.665Z,97.8
2017-01-10T12:13:19.654Z,98.37
2017-01-10T12:14:19.639Z,98.47
2017-01-10T12:15:19.610Z,98.47
2017-01-10T12:16:19.591Z,98.65
2017-01-10T12:17:19.582Z,98.75
2017-01-10T12:18:19.553Z,98.84
2017-01-10T12:19:19.540Z,99.6
2017-01-10T12:20:19.523Z,99.99
2017-01-10T12:21:19.506Z,99.99
2017-01-10T12:22:19.484Z,99.99
2017-01-10T12:23:19.463Z,99.99
2017-01-10T12:24:19.446Z,99.99
2017-01-10T12:25:19.432Z,99.99
2017-01-10T12:26:19.413Z,99.99
2017-01-10T12:27:19.397Z,99.99
2017-01-10T12:28:19.377Z,99.99
2017-01-10T12:29:19.375Z,99.99
2017-01-10T12:30:19.339Z,99.99
2017-01-10T12:31:19.321Z,99.99
2017-01-10T12:32:19.298Z,99.99
2017-01-10T12:33:19.286Z,99.99
2017-01-10T12:34:19.265Z,99.99
2017-01-10T12:35:19.238Z,99.99
2017-01-10T12:36:19.244Z,99.99
2017-01-10T12:37:19.204Z,99.99
2017-01-10T12:38:19.188Z,99.99
2017-01-10T12:39:19.170Z,99.99
2017-01-10T12:40:19.197Z,99.99
2017-01-10T12:41:19.134Z,99.99
2017-01-10T12:42:19.110Z,99.99
2017-01-10T12:43:19.093Z,99.99
2017-01-10T12:44:19.071Z,99.99
2017-01-10T12:45:19.050Z,99.99
2017-01-10T12:46:19.038Z,99.99
2017-01-10T12:47:19.020Z,99.99
2017-01-10T12:48:18.993Z,99.99
2017-01-10T12:49:18.984Z,99.99
2017-01-10T12:50:18.960Z,99.99
2017-01-10T12:51:18.950Z,99.99
2017-01-10T12:52:18.927Z,99.99